sensor_id;sensor_type;location;lat;lon;timestamp;temperature;humidity
44166;DHT22;30476;53.468;9.826;2024-02-21T00:01:01;10.10;99.90
44166;DHT22;30476;53.468;9.826;2024-02-21T00:03:27;10.10;99.90
44166;DHT22;30476;53.468;9.826;2024-02-21T00:05:53;10.10;99.90
44166;DHT22;30476;53.468;9.826;2024-02-21T00:08:19;10.10;99.90
44166;DHT22;30476;53.468;9.826;2024-02-21T00:10:45;10.10;99.90
44166;DHT22;30476;53.468;9.826;2024-02-21T00:13:10;10.10;99.90
44166;DHT22;30476;53.468;9.826;2024-02-21T00:15:37;10.10;99.90
44166;DHT22;30476;53.468;9.826;2024-02-21T00:18:03;10.10;99.90
44166;DHT22;30476;53.468;9.826;2024-02-21T00:20:29;10.10;99.90
44166;DHT22;30476;53.468;9.826;2024-02-21T00:22:55;10.10;99.90
44166;DHT22;30476;53.468;9.826;2024-02-21T00:25:21;10.10;99.90
44166;DHT22;30476;53.468;9.826;2024-02-21T00:27:47;10.10;99.90
44166;DHT22;30476;53.468;9.826;2024-02-21T00:30:13;10.10;99.90
44166;DHT22;30476;53.468;9.826;2024-02-21T00:32:39;10.10;99.90
44166;DHT22;30476;53.468;9.826;2024-02-21T00:35:05;10.10;99.90
44166;DHT22;30476;53.468;9.826;2024-02-21T00:37:31;10.10;99.90
44166;DHT22;30476;53.468;9.826;2024-02-21T00:39:57;10.10;99.90
44166;DHT22;30476;53.468;9.826;2024-02-21T00:42:23;10.00;99.90
44166;DHT22;30476;53.468;9.826;2024-02-21T00:44:49;10.00;99.90
44166;DHT22;30476;53.468;9.826;2024-02-21T00:47:14;10.00;99.90
44166;DHT22;30476;53.468;9.826;2024-02-21T00:49:40;10.10;99.90
44166;DHT22;30476;53.468;9.826;2024-02-21T00:52:06;10.10;99.90
44166;DHT22;30476;53.468;9.826;2024-02-21T00:54:32;10.00;99.90
44166;DHT22;30476;53.468;9.826;2024-02-21T00:56:58;10.10;99.90
44166;DHT22;30476;53.468;9.826;2024-02-21T00:59:24;10.10;99.90
44166;DHT22;30476;53.468;9.826;2024-02-21T01:01:49;10.10;99.90
44166;DHT22;30476;53.468;9.826;2024-02-21T01:04:15;10.10;99.90
44166;DHT22;30476;53.468;9.826;2024-02-21T01:06:41;10.20;99.90
44166;DHT22;30476;53.468;9.826;2024-02-21T01:09:09;10.10;99.90
44166;DHT22;30476;53.468;9.826;2024-02-21T01:11:35;10.20;99.90
44166;DHT22;30476;53.468;9.826;2024-02-21T01:14:01;10.10;99.90
44166;DHT22;30476;53.468;9.826;2024-02-21T01:16:26;10.10;99.90
44166;DHT22;30476;53.468;9.826;2024-02-21T01:18:52;10.10;99.90
44166;DHT22;30476;53.468;9.826;2024-02-21T01:21:18;10.10;99.90
44166;DHT22;30476;53.468;9.826;2024-02-21T01:23:44;10.20;99.90
44166;DHT22;30476;53.468;9.826;2024-02-21T01:26:10;10.20;99.90
44166;DHT22;30476;53.468;9.826;2024-02-21T01:28:39;10.20;99.90
44166;DHT22;30476;53.468;9.826;2024-02-21T01:31:04;10.20;99.90
44166;DHT22;30476;53.468;9.826;2024-02-21T01:33:30;10.20;99.90
44166;DHT22;30476;53.468;9.826;2024-02-21T01:36:03;10.20;99.90
44166;DHT22;30476;53.468;9.826;2024-02-21T01:38:29;10.20;99.90
44166;DHT22;30476;53.468;9.826;2024-02-21T01:40:55;10.20;99.90
44166;DHT22;30476;53.468;9.826;2024-02-21T01:43:22;10.20;99.90
44166;DHT22;30476;53.468;9.826;2024-02-21T01:45:53;10.20;99.90
44166;DHT22;30476;53.468;9.826;2024-02-21T01:48:22;10.20;99.90
44166;DHT22;30476;53.468;9.826;2024-02-21T01:50:49;10.20;99.90
44166;DHT22;30476;53.468;9.826;2024-02-21T01:53:30;10.10;99.90
44166;DHT22;30476;53.468;9.826;2024-02-21T01:55:58;10.20;99.90
44166;DHT22;30476;53.468;9.826;2024-02-21T01:58:24;10.20;99.90
44166;DHT22;30476;53.468;9.826;2024-02-21T02:00:50;10.10;99.90
44166;DHT22;30476;53.468;9.826;2024-02-21T02:03:17;10.20;99.90
44166;DHT22;30476;53.468;9.826;2024-02-21T02:05:48;10.10;99.90
44166;DHT22;30476;53.468;9.826;2024-02-21T02:08:15;10.10;99.90
44166;DHT22;30476;53.468;9.826;2024-02-21T02:10:41;10.10;99.90
44166;DHT22;30476;53.468;9.826;2024-02-21T02:13:07;10.10;99.90
44166;DHT22;30476;53.468;9.826;2024-02-21T02:15:47;10.00;99.90
44166;DHT22;30476;53.468;9.826;2024-02-21T02:18:15;10.10;99.90
44166;DHT22;30476;53.468;9.826;2024-02-21T02:20:41;10.20;99.90
44166;DHT22;30476;53.468;9.826;2024-02-21T02:23:11;10.10;99.90
44166;DHT22;30476;53.468;9.826;2024-02-21T02:25:38;10.10;99.90
44166;DHT22;30476;53.468;9.826;2024-02-21T02:28:05;10.10;99.90
44166;DHT22;30476;53.468;9.826;2024-02-21T02:30:32;10.10;99.90
44166;DHT22;30476;53.468;9.826;2024-02-21T02:33:00;10.10;99.90
44166;DHT22;30476;53.468;9.826;2024-02-21T02:35:25;10.10;99.90
44166;DHT22;30476;53.468;9.826;2024-02-21T02:37:51;10.00;99.90
44166;DHT22;30476;53.468;9.826;2024-02-21T02:40:18;10.10;99.90
44166;DHT22;30476;53.468;9.826;2024-02-21T02:42:44;10.00;99.90
44166;DHT22;30476;53.468;9.826;2024-02-21T02:45:09;10.00;99.90
44166;DHT22;30476;53.468;9.826;2024-02-21T02:47:35;10.00;99.90
44166;DHT22;30476;53.468;9.826;2024-02-21T02:50:01;9.90;99.90
44166;DHT22;30476;53.468;9.826;2024-02-21T02:52:27;10.00;99.90
44166;DHT22;30476;53.468;9.826;2024-02-21T02:54:53;10.10;99.90
44166;DHT22;30476;53.468;9.826;2024-02-21T02:57:21;9.90;99.90
44166;DHT22;30476;53.468;9.826;2024-02-21T02:59:50;10.00;99.90
44166;DHT22;30476;53.468;9.826;2024-02-21T03:02:16;9.90;99.90
44166;DHT22;30476;53.468;9.826;2024-02-21T03:04:43;9.90;99.90
44166;DHT22;30476;53.468;9.826;2024-02-21T03:07:09;9.90;99.90
44166;DHT22;30476;53.468;9.826;2024-02-21T03:09:37;10.00;99.90
44166;DHT22;30476;53.468;9.826;2024-02-21T03:12:05;10.00;99.90
44166;DHT22;30476;53.468;9.826;2024-02-21T03:14:32;9.90;99.90
44166;DHT22;30476;53.468;9.826;2024-02-21T03:17:02;10.00;99.90
44166;DHT22;30476;53.468;9.826;2024-02-21T03:19:49;10.00;99.90
44166;DHT22;30476;53.468;9.826;2024-02-21T03:22:16;10.00;99.90
44166;DHT22;30476;53.468;9.826;2024-02-21T03:24:42;9.90;99.90
44166;DHT22;30476;53.468;9.826;2024-02-21T03:27:08;10.00;99.90
44166;DHT22;30476;53.468;9.826;2024-02-21T03:29:34;10.00;99.90
44166;DHT22;30476;53.468;9.826;2024-02-21T03:31:59;10.00;99.90
44166;DHT22;30476;53.468;9.826;2024-02-21T03:34:25;10.00;99.90
44166;DHT22;30476;53.468;9.826;2024-02-21T03:36:51;10.00;99.90
44166;DHT22;30476;53.468;9.826;2024-02-21T03:39:17;10.00;99.90
44166;DHT22;30476;53.468;9.826;2024-02-21T03:41:43;10.10;99.90
44166;DHT22;30476;53.468;9.826;2024-02-21T03:44:09;10.10;99.90
44166;DHT22;30476;53.468;9.826;2024-02-21T03:46:35;10.10;99.90
44166;DHT22;30476;53.468;9.826;2024-02-21T03:49:01;10.00;99.90
44166;DHT22;30476;53.468;9.826;2024-02-21T03:51:27;10.10;99.90
44166;DHT22;30476;53.468;9.826;2024-02-21T03:53:52;10.00;99.90
44166;DHT22;30476;53.468;9.826;2024-02-21T03:56:18;10.10;99.90
44166;DHT22;30476;53.468;9.826;2024-02-21T03:58:44;10.10;99.90
44166;DHT22;30476;53.468;9.826;2024-02-21T04:01:10;10.10;99.90
44166;DHT22;30476;53.468;9.826;2024-02-21T04:03:35;10.10;99.90
44166;DHT22;30476;53.468;9.826;2024-02-21T04:06:01;10.00;99.90
44166;DHT22;30476;53.468;9.826;2024-02-21T04:08:27;10.10;99.90
44166;DHT22;30476;53.468;9.826;2024-02-21T04:10:53;10.00;99.90
44166;DHT22;30476;53.468;9.826;2024-02-21T04:13:19;10.10;99.90
44166;DHT22;30476;53.468;9.826;2024-02-21T04:15:44;10.10;99.90
44166;DHT22;30476;53.468;9.826;2024-02-21T04:18:10;10.10;99.90
44166;DHT22;30476;53.468;9.826;2024-02-21T04:20:36;10.10;99.90
44166;DHT22;30476;53.468;9.826;2024-02-21T04:23:02;10.10;99.90
44166;DHT22;30476;53.468;9.826;2024-02-21T04:25:27;10.10;99.90
44166;DHT22;30476;53.468;9.826;2024-02-21T04:27:53;10.10;99.90
44166;DHT22;30476;53.468;9.826;2024-02-21T04:30:19;10.10;99.90
44166;DHT22;30476;53.468;9.826;2024-02-21T04:32:45;10.10;99.90
44166;DHT22;30476;53.468;9.826;2024-02-21T04:35:11;10.10;99.90
44166;DHT22;30476;53.468;9.826;2024-02-21T04:37:36;10.10;99.90
44166;DHT22;30476;53.468;9.826;2024-02-21T04:40:02;10.10;99.90
44166;DHT22;30476;53.468;9.826;2024-02-21T04:42:28;10.10;99.90
44166;DHT22;30476;53.468;9.826;2024-02-21T04:44:54;10.10;99.90
44166;DHT22;30476;53.468;9.826;2024-02-21T04:47:20;10.10;99.90
44166;DHT22;30476;53.468;9.826;2024-02-21T04:49:46;10.10;99.90
44166;DHT22;30476;53.468;9.826;2024-02-21T04:52:12;10.10;99.90
44166;DHT22;30476;53.468;9.826;2024-02-21T04:54:38;10.00;99.90
44166;DHT22;30476;53.468;9.826;2024-02-21T04:57:04;10.00;99.90
44166;DHT22;30476;53.468;9.826;2024-02-21T04:59:30;10.00;99.90
44166;DHT22;30476;53.468;9.826;2024-02-21T05:01:56;10.00;99.90
44166;DHT22;30476;53.468;9.826;2024-02-21T05:04:21;10.00;99.90
44166;DHT22;30476;53.468;9.826;2024-02-21T05:06:47;10.00;99.90
44166;DHT22;30476;53.468;9.826;2024-02-21T05:09:14;10.00;99.90
44166;DHT22;30476;53.468;9.826;2024-02-21T05:11:40;10.00;99.90
44166;DHT22;30476;53.468;9.826;2024-02-21T05:14:06;10.00;99.90
44166;DHT22;30476;53.468;9.826;2024-02-21T05:16:32;10.00;99.90
44166;DHT22;30476;53.468;9.826;2024-02-21T05:18:58;10.00;99.90
44166;DHT22;30476;53.468;9.826;2024-02-21T05:21:24;10.00;99.90
44166;DHT22;30476;53.468;9.826;2024-02-21T05:23:51;10.00;99.90
44166;DHT22;30476;53.468;9.826;2024-02-21T05:26:24;10.10;99.90
44166;DHT22;30476;53.468;9.826;2024-02-21T05:28:51;9.90;99.90
44166;DHT22;30476;53.468;9.826;2024-02-21T05:31:20;9.90;99.90
44166;DHT22;30476;53.468;9.826;2024-02-21T05:33:47;10.00;99.90
44166;DHT22;30476;53.468;9.826;2024-02-21T05:36:13;10.00;99.90
44166;DHT22;30476;53.468;9.826;2024-02-21T05:38:39;9.90;99.90
44166;DHT22;30476;53.468;9.826;2024-02-21T05:41:05;10.10;99.90
44166;DHT22;30476;53.468;9.826;2024-02-21T05:43:31;9.90;99.90
44166;DHT22;30476;53.468;9.826;2024-02-21T05:45:57;9.90;99.90
44166;DHT22;30476;53.468;9.826;2024-02-21T05:48:26;10.00;99.90
44166;DHT22;30476;53.468;9.826;2024-02-21T05:54:14;9.90;99.90
44166;DHT22;30476;53.468;9.826;2024-02-21T05:56:44;10.00;99.90
44166;DHT22;30476;53.468;9.826;2024-02-21T05:59:10;10.00;99.90
44166;DHT22;30476;53.468;9.826;2024-02-21T06:01:36;10.00;99.90
44166;DHT22;30476;53.468;9.826;2024-02-21T06:04:01;10.00;99.90
44166;DHT22;30476;53.468;9.826;2024-02-21T06:06:27;10.00;99.90
44166;DHT22;30476;53.468;9.826;2024-02-21T06:08:53;9.90;99.90
44166;DHT22;30476;53.468;9.826;2024-02-21T06:11:19;10.00;99.90
44166;DHT22;30476;53.468;9.826;2024-02-21T06:13:45;10.00;99.90
44166;DHT22;30476;53.468;9.826;2024-02-21T06:16:11;10.00;99.90
44166;DHT22;30476;53.468;9.826;2024-02-21T06:18:36;10.00;99.90
44166;DHT22;30476;53.468;9.826;2024-02-21T06:21:03;10.00;99.90
44166;DHT22;30476;53.468;9.826;2024-02-21T06:23:29;10.00;99.90
44166;DHT22;30476;53.468;9.826;2024-02-21T06:25:54;10.00;99.90
44166;DHT22;30476;53.468;9.826;2024-02-21T06:28:20;10.00;99.90
44166;DHT22;30476;53.468;9.826;2024-02-21T06:30:46;10.00;99.90
44166;DHT22;30476;53.468;9.826;2024-02-21T06:33:12;10.00;99.90
44166;DHT22;30476;53.468;9.826;2024-02-21T06:35:37;10.00;99.90
44166;DHT22;30476;53.468;9.826;2024-02-21T06:38:06;10.00;99.90
44166;DHT22;30476;53.468;9.826;2024-02-21T06:40:33;10.00;99.90
44166;DHT22;30476;53.468;9.826;2024-02-21T06:43:04;10.00;99.90
44166;DHT22;30476;53.468;9.826;2024-02-21T06:45:30;10.00;99.90
44166;DHT22;30476;53.468;9.826;2024-02-21T06:47:56;10.00;99.90
44166;DHT22;30476;53.468;9.826;2024-02-21T06:50:22;10.00;99.90
44166;DHT22;30476;53.468;9.826;2024-02-21T06:52:48;10.00;99.90
44166;DHT22;30476;53.468;9.826;2024-02-21T06:55:13;10.00;99.90
44166;DHT22;30476;53.468;9.826;2024-02-21T06:57:39;10.00;99.90
44166;DHT22;30476;53.468;9.826;2024-02-21T07:00:05;10.00;99.90
44166;DHT22;30476;53.468;9.826;2024-02-21T07:02:34;10.00;99.90
44166;DHT22;30476;53.468;9.826;2024-02-21T07:05:00;10.00;99.90
44166;DHT22;30476;53.468;9.826;2024-02-21T07:07:26;10.10;99.90
44166;DHT22;30476;53.468;9.826;2024-02-21T07:09:51;10.10;99.90
44166;DHT22;30476;53.468;9.826;2024-02-21T07:12:19;10.10;99.90
44166;DHT22;30476;53.468;9.826;2024-02-21T07:14:45;10.10;99.90
44166;DHT22;30476;53.468;9.826;2024-02-21T07:17:10;10.10;99.90
44166;DHT22;30476;53.468;9.826;2024-02-21T07:19:36;10.10;99.90
44166;DHT22;30476;53.468;9.826;2024-02-21T07:22:02;10.10;99.90
44166;DHT22;30476;53.468;9.826;2024-02-21T07:24:28;10.10;99.90
44166;DHT22;30476;53.468;9.826;2024-02-21T07:26:54;10.20;99.90
44166;DHT22;30476;53.468;9.826;2024-02-21T07:29:21;10.10;99.90
44166;DHT22;30476;53.468;9.826;2024-02-21T07:31:48;10.10;99.90
44166;DHT22;30476;53.468;9.826;2024-02-21T07:34:14;10.10;99.90
44166;DHT22;30476;53.468;9.826;2024-02-21T07:36:40;10.10;99.90
44166;DHT22;30476;53.468;9.826;2024-02-21T07:39:08;10.10;99.90
44166;DHT22;30476;53.468;9.826;2024-02-21T07:41:34;10.10;99.90
44166;DHT22;30476;53.468;9.826;2024-02-21T07:44:00;10.10;99.90
44166;DHT22;30476;53.468;9.826;2024-02-21T07:46:26;10.10;99.90
44166;DHT22;30476;53.468;9.826;2024-02-21T07:48:52;10.10;99.90
44166;DHT22;30476;53.468;9.826;2024-02-21T07:51:17;10.10;99.90
44166;DHT22;30476;53.468;9.826;2024-02-21T07:53:44;10.10;99.90
44166;DHT22;30476;53.468;9.826;2024-02-21T07:56:14;10.10;99.90
44166;DHT22;30476;53.468;9.826;2024-02-21T07:58:43;10.10;99.90
44166;DHT22;30476;53.468;9.826;2024-02-21T08:01:10;10.10;99.90
44166;DHT22;30476;53.468;9.826;2024-02-21T08:03:36;10.10;99.90
44166;DHT22;30476;53.468;9.826;2024-02-21T08:06:03;10.20;99.90
44166;DHT22;30476;53.468;9.826;2024-02-21T08:08:29;10.20;99.90
44166;DHT22;30476;53.468;9.826;2024-02-21T08:10:55;10.20;99.90
44166;DHT22;30476;53.468;9.826;2024-02-21T08:13:21;10.20;99.90
44166;DHT22;30476;53.468;9.826;2024-02-21T08:15:47;10.20;99.90
44166;DHT22;30476;53.468;9.826;2024-02-21T08:18:13;10.20;99.90
44166;DHT22;30476;53.468;9.826;2024-02-21T08:20:38;10.20;99.90
44166;DHT22;30476;53.468;9.826;2024-02-21T08:23:04;10.20;99.90
44166;DHT22;30476;53.468;9.826;2024-02-21T08:25:30;10.20;99.90
44166;DHT22;30476;53.468;9.826;2024-02-21T08:27:58;10.20;99.90
44166;DHT22;30476;53.468;9.826;2024-02-21T08:30:24;10.20;99.90
44166;DHT22;30476;53.468;9.826;2024-02-21T08:32:50;10.20;99.90
44166;DHT22;30476;53.468;9.826;2024-02-21T08:35:16;10.30;99.90
44166;DHT22;30476;53.468;9.826;2024-02-21T08:37:44;10.30;99.90
44166;DHT22;30476;53.468;9.826;2024-02-21T08:40:14;10.30;99.90
44166;DHT22;30476;53.468;9.826;2024-02-21T08:42:43;10.30;99.90
44166;DHT22;30476;53.468;9.826;2024-02-21T08:45:10;10.30;99.90
44166;DHT22;30476;53.468;9.826;2024-02-21T08:47:36;10.30;99.90
44166;DHT22;30476;53.468;9.826;2024-02-21T08:50:02;10.40;99.90
44166;DHT22;30476;53.468;9.826;2024-02-21T08:52:28;10.40;99.90
44166;DHT22;30476;53.468;9.826;2024-02-21T08:54:54;10.40;99.90
44166;DHT22;30476;53.468;9.826;2024-02-21T08:57:20;10.40;99.90
44166;DHT22;30476;53.468;9.826;2024-02-21T08:59:46;10.40;99.90
44166;DHT22;30476;53.468;9.826;2024-02-21T09:02:15;10.40;99.90
44166;DHT22;30476;53.468;9.826;2024-02-21T09:04:44;10.40;99.90
44166;DHT22;30476;53.468;9.826;2024-02-21T09:07:10;10.40;99.90
44166;DHT22;30476;53.468;9.826;2024-02-21T09:09:36;10.40;99.90
44166;DHT22;30476;53.468;9.826;2024-02-21T09:12:07;10.50;99.90
44166;DHT22;30476;53.468;9.826;2024-02-21T09:14:33;10.40;99.90
44166;DHT22;30476;53.468;9.826;2024-02-21T09:16:59;10.50;99.90
44166;DHT22;30476;53.468;9.826;2024-02-21T09:19:25;10.50;99.90
44166;DHT22;30476;53.468;9.826;2024-02-21T09:21:51;10.50;99.90
44166;DHT22;30476;53.468;9.826;2024-02-21T09:24:17;10.40;99.90
44166;DHT22;30476;53.468;9.826;2024-02-21T09:26:43;10.50;99.90
44166;DHT22;30476;53.468;9.826;2024-02-21T09:29:09;10.50;99.90
44166;DHT22;30476;53.468;9.826;2024-02-21T09:31:35;10.50;99.90
44166;DHT22;30476;53.468;9.826;2024-02-21T09:34:01;10.50;99.90
44166;DHT22;30476;53.468;9.826;2024-02-21T09:36:27;10.50;99.90
44166;DHT22;30476;53.468;9.826;2024-02-21T09:38:53;10.60;99.90
44166;DHT22;30476;53.468;9.826;2024-02-21T09:41:25;10.60;99.90
44166;DHT22;30476;53.468;9.826;2024-02-21T09:43:53;10.60;99.90
44166;DHT22;30476;53.468;9.826;2024-02-21T09:46:24;10.60;99.90
44166;DHT22;30476;53.468;9.826;2024-02-21T09:49:09;10.60;99.90
44166;DHT22;30476;53.468;9.826;2024-02-21T09:51:40;10.50;99.90
44166;DHT22;30476;53.468;9.826;2024-02-21T09:54:07;10.70;99.90
44166;DHT22;30476;53.468;9.826;2024-02-21T09:56:33;10.60;99.90
44166;DHT22;30476;53.468;9.826;2024-02-21T09:58:59;10.60;99.90
44166;DHT22;30476;53.468;9.826;2024-02-21T10:01:28;10.60;99.90
44166;DHT22;30476;53.468;9.826;2024-02-21T10:03:54;10.50;99.90
44166;DHT22;30476;53.468;9.826;2024-02-21T10:06:20;10.50;99.90
44166;DHT22;30476;53.468;9.826;2024-02-21T10:08:55;10.50;99.90
44166;DHT22;30476;53.468;9.826;2024-02-21T10:11:24;10.50;99.90
44166;DHT22;30476;53.468;9.826;2024-02-21T10:13:50;10.50;99.90
44166;DHT22;30476;53.468;9.826;2024-02-21T10:16:16;10.50;99.90
44166;DHT22;30476;53.468;9.826;2024-02-21T10:18:42;10.50;99.90
44166;DHT22;30476;53.468;9.826;2024-02-21T10:21:08;10.50;99.90
44166;DHT22;30476;53.468;9.826;2024-02-21T10:23:59;10.50;99.90
44166;DHT22;30476;53.468;9.826;2024-02-21T10:26:24;10.50;99.90
44166;DHT22;30476;53.468;9.826;2024-02-21T10:28:50;10.60;99.90
44166;DHT22;30476;53.468;9.826;2024-02-21T10:31:25;10.50;99.90
44166;DHT22;30476;53.468;9.826;2024-02-21T10:33:58;10.50;99.90
44166;DHT22;30476;53.468;9.826;2024-02-21T10:36:24;10.50;99.90
44166;DHT22;30476;53.468;9.826;2024-02-21T10:38:51;10.50;99.90
44166;DHT22;30476;53.468;9.826;2024-02-21T10:41:19;10.60;99.90
44166;DHT22;30476;53.468;9.826;2024-02-21T10:43:49;10.60;99.90
44166;DHT22;30476;53.468;9.826;2024-02-21T10:46:19;10.60;99.90
44166;DHT22;30476;53.468;9.826;2024-02-21T10:48:47;10.50;99.90
44166;DHT22;30476;53.468;9.826;2024-02-21T10:51:20;10.60;99.90
44166;DHT22;30476;53.468;9.826;2024-02-21T10:56:33;10.50;99.90
44166;DHT22;30476;53.468;9.826;2024-02-21T10:59:04;10.60;99.90
44166;DHT22;30476;53.468;9.826;2024-02-21T11:01:30;10.60;99.90
44166;DHT22;30476;53.468;9.826;2024-02-21T11:04:05;10.50;99.90
44166;DHT22;30476;53.468;9.826;2024-02-21T11:06:33;10.60;99.90
44166;DHT22;30476;53.468;9.826;2024-02-21T11:09:05;10.60;99.90
44166;DHT22;30476;53.468;9.826;2024-02-21T11:11:38;10.60;99.90
44166;DHT22;30476;53.468;9.826;2024-02-21T11:17:18;10.60;99.90
44166;DHT22;30476;53.468;9.826;2024-02-21T11:19:45;10.70;99.90
44166;DHT22;30476;53.468;9.826;2024-02-21T11:22:17;10.50;99.90
44166;DHT22;30476;53.468;9.826;2024-02-21T11:24:44;10.60;99.90
44166;DHT22;30476;53.468;9.826;2024-02-21T11:27:12;10.60;99.90
44166;DHT22;30476;53.468;9.826;2024-02-21T11:32:11;10.50;99.90
44166;DHT22;30476;53.468;9.826;2024-02-21T11:34:39;10.60;99.90
44166;DHT22;30476;53.468;9.826;2024-02-21T11:37:13;10.50;99.90
44166;DHT22;30476;53.468;9.826;2024-02-21T11:39:41;10.50;99.90
44166;DHT22;30476;53.468;9.826;2024-02-21T11:42:08;10.50;99.90
44166;DHT22;30476;53.468;9.826;2024-02-21T11:44:35;10.50;99.90
44166;DHT22;30476;53.468;9.826;2024-02-21T11:47:04;10.50;99.90
44166;DHT22;30476;53.468;9.826;2024-02-21T11:49:30;10.50;99.90
44166;DHT22;30476;53.468;9.826;2024-02-21T11:52:00;10.60;99.90
44166;DHT22;30476;53.468;9.826;2024-02-21T11:54:27;10.60;99.90
44166;DHT22;30476;53.468;9.826;2024-02-21T11:56:53;10.60;99.90
44166;DHT22;30476;53.468;9.826;2024-02-21T11:59:19;10.50;99.90
44166;DHT22;30476;53.468;9.826;2024-02-21T12:01:45;10.60;99.90
44166;DHT22;30476;53.468;9.826;2024-02-21T12:04:10;10.60;99.90
44166;DHT22;30476;53.468;9.826;2024-02-21T12:06:36;10.70;99.90
44166;DHT22;30476;53.468;9.826;2024-02-21T12:09:02;10.60;99.90
44166;DHT22;30476;53.468;9.826;2024-02-21T12:11:28;10.60;99.90
44166;DHT22;30476;53.468;9.826;2024-02-21T12:14:03;10.60;99.90
44166;DHT22;30476;53.468;9.826;2024-02-21T12:16:31;10.60;99.90
44166;DHT22;30476;53.468;9.826;2024-02-21T12:18:59;10.60;99.90
44166;DHT22;30476;53.468;9.826;2024-02-21T12:21:30;10.60;99.90
44166;DHT22;30476;53.468;9.826;2024-02-21T12:24:29;10.70;99.90
44166;DHT22;30476;53.468;9.826;2024-02-21T12:26:56;10.50;99.90
44166;DHT22;30476;53.468;9.826;2024-02-21T12:29:23;10.50;99.90
44166;DHT22;30476;53.468;9.826;2024-02-21T12:31:50;10.50;99.90
44166;DHT22;30476;53.468;9.826;2024-02-21T12:34:16;10.50;99.90
44166;DHT22;30476;53.468;9.826;2024-02-21T12:36:44;10.50;99.90
44166;DHT22;30476;53.468;9.826;2024-02-21T12:39:10;10.50;99.90
44166;DHT22;30476;53.468;9.826;2024-02-21T12:41:37;10.50;99.90
44166;DHT22;30476;53.468;9.826;2024-02-21T12:44:10;10.50;99.90
44166;DHT22;30476;53.468;9.826;2024-02-21T12:46:37;10.50;99.90
44166;DHT22;30476;53.468;9.826;2024-02-21T12:49:03;10.60;99.90
44166;DHT22;30476;53.468;9.826;2024-02-21T12:51:33;10.60;99.90
44166;DHT22;30476;53.468;9.826;2024-02-21T12:53:59;10.60;99.90
44166;DHT22;30476;53.468;9.826;2024-02-21T12:56:26;10.50;99.90
44166;DHT22;30476;53.468;9.826;2024-02-21T12:58:53;10.60;99.90
44166;DHT22;30476;53.468;9.826;2024-02-21T13:01:19;10.70;99.90
44166;DHT22;30476;53.468;9.826;2024-02-21T13:03:45;10.70;99.90
44166;DHT22;30476;53.468;9.826;2024-02-21T13:06:12;10.70;99.90
44166;DHT22;30476;53.468;9.826;2024-02-21T13:08:39;10.80;99.90
44166;DHT22;30476;53.468;9.826;2024-02-21T13:11:05;10.80;99.90
44166;DHT22;30476;53.468;9.826;2024-02-21T13:13:31;10.90;99.90
44166;DHT22;30476;53.468;9.826;2024-02-21T13:15:58;10.90;99.90
44166;DHT22;30476;53.468;9.826;2024-02-21T13:18:23;10.90;99.90
44166;DHT22;30476;53.468;9.826;2024-02-21T13:20:49;11.00;99.90
44166;DHT22;30476;53.468;9.826;2024-02-21T13:23:15;11.00;99.90
44166;DHT22;30476;53.468;9.826;2024-02-21T13:25:41;11.10;99.90
44166;DHT22;30476;53.468;9.826;2024-02-21T13:28:07;11.10;99.90
44166;DHT22;30476;53.468;9.826;2024-02-21T13:30:34;11.10;99.90
44166;DHT22;30476;53.468;9.826;2024-02-21T13:33:00;11.10;99.90
44166;DHT22;30476;53.468;9.826;2024-02-21T13:35:25;11.10;99.90
44166;DHT22;30476;53.468;9.826;2024-02-21T13:37:51;11.10;99.90
44166;DHT22;30476;53.468;9.826;2024-02-21T13:40:17;11.20;99.90
44166;DHT22;30476;53.468;9.826;2024-02-21T13:42:43;11.20;99.90
44166;DHT22;30476;53.468;9.826;2024-02-21T13:45:09;11.20;99.90
44166;DHT22;30476;53.468;9.826;2024-02-21T13:47:35;11.20;99.90
44166;DHT22;30476;53.468;9.826;2024-02-21T13:50:07;11.20;99.90
44166;DHT22;30476;53.468;9.826;2024-02-21T13:52:37;11.20;99.90
44166;DHT22;30476;53.468;9.826;2024-02-21T13:55:03;11.20;99.90
44166;DHT22;30476;53.468;9.826;2024-02-21T13:57:29;11.20;99.90
44166;DHT22;30476;53.468;9.826;2024-02-21T13:59:55;11.20;99.90
44166;DHT22;30476;53.468;9.826;2024-02-21T14:02:21;11.30;99.90
44166;DHT22;30476;53.468;9.826;2024-02-21T14:04:47;11.30;99.90
44166;DHT22;30476;53.468;9.826;2024-02-21T14:07:13;11.20;99.90
44166;DHT22;30476;53.468;9.826;2024-02-21T14:09:39;11.20;99.90
44166;DHT22;30476;53.468;9.826;2024-02-21T14:12:05;11.30;99.90
44166;DHT22;30476;53.468;9.826;2024-02-21T14:14:35;11.30;99.90
44166;DHT22;30476;53.468;9.826;2024-02-21T14:17:01;11.40;99.90
44166;DHT22;30476;53.468;9.826;2024-02-21T14:19:27;11.40;99.90
44166;DHT22;30476;53.468;9.826;2024-02-21T14:21:53;11.40;99.90
44166;DHT22;30476;53.468;9.826;2024-02-21T14:24:19;11.40;99.90
44166;DHT22;30476;53.468;9.826;2024-02-21T14:26:45;11.40;99.90
44166;DHT22;30476;53.468;9.826;2024-02-21T14:29:11;11.40;99.90
44166;DHT22;30476;53.468;9.826;2024-02-21T14:31:38;11.40;99.90
44166;DHT22;30476;53.468;9.826;2024-02-21T14:34:04;11.40;99.90
44166;DHT22;30476;53.468;9.826;2024-02-21T14:36:29;11.40;99.90
44166;DHT22;30476;53.468;9.826;2024-02-21T14:38:55;11.50;99.90
44166;DHT22;30476;53.468;9.826;2024-02-21T14:41:21;11.50;99.90
44166;DHT22;30476;53.468;9.826;2024-02-21T14:43:47;11.50;99.90
44166;DHT22;30476;53.468;9.826;2024-02-21T14:46:13;11.50;99.90
44166;DHT22;30476;53.468;9.826;2024-02-21T14:48:39;11.50;99.90
44166;DHT22;30476;53.468;9.826;2024-02-21T14:51:04;11.50;99.90
44166;DHT22;30476;53.468;9.826;2024-02-21T14:53:30;11.50;99.90
44166;DHT22;30476;53.468;9.826;2024-02-21T14:55:56;11.60;99.90
44166;DHT22;30476;53.468;9.826;2024-02-21T14:58:23;11.50;99.90
44166;DHT22;30476;53.468;9.826;2024-02-21T15:00:49;11.50;99.90
44166;DHT22;30476;53.468;9.826;2024-02-21T15:03:16;11.60;99.90
44166;DHT22;30476;53.468;9.826;2024-02-21T15:05:45;11.50;99.90
44166;DHT22;30476;53.468;9.826;2024-02-21T15:08:11;11.50;99.90
44166;DHT22;30476;53.468;9.826;2024-02-21T15:10:38;11.50;99.90
44166;DHT22;30476;53.468;9.826;2024-02-21T15:13:04;11.50;99.90
44166;DHT22;30476;53.468;9.826;2024-02-21T15:15:30;11.50;99.90
44166;DHT22;30476;53.468;9.826;2024-02-21T15:17:56;11.50;99.90
44166;DHT22;30476;53.468;9.826;2024-02-21T15:20:21;11.40;99.90
44166;DHT22;30476;53.468;9.826;2024-02-21T15:22:47;11.40;99.90
44166;DHT22;30476;53.468;9.826;2024-02-21T15:25:13;11.30;99.90
44166;DHT22;30476;53.468;9.826;2024-02-21T15:27:44;11.30;99.90
44166;DHT22;30476;53.468;9.826;2024-02-21T15:30:11;11.20;99.90
44166;DHT22;30476;53.468;9.826;2024-02-21T15:32:38;11.20;99.90
44166;DHT22;30476;53.468;9.826;2024-02-21T15:35:05;11.20;99.90
44166;DHT22;30476;53.468;9.826;2024-02-21T15:37:36;11.20;99.90
44166;DHT22;30476;53.468;9.826;2024-02-21T15:40:02;11.20;99.90
44166;DHT22;30476;53.468;9.826;2024-02-21T15:42:32;11.20;99.90